Nearby METAR Reports

 

KMTN - Baltimore/Martin, Maryland, USA
Distance from station: SSE 8mi, 13km
Updated: Wed, 22-Oct-2014 8:45pm EDT
Overcast
Overcast
 Wind from NW
Wind: NW 12 mph , 19 km/h, Gust: 23 mph , 37 km/h
Temperature: 55°F , 13°C
Dew Point: 48°F , 9°C
Humidity: 77%
Barometer: 29.92 inHg , 1013.2 hPa
Clouds: Overcast
Visibility: 10 miles , 16 km
Cloud details: Overcast 3700 ft
2014/10/23 00:45 KMTN 230045Z 31010G20KT 10SM OVC037 13/09 A2992
KDMH - Baltimore/Dwntwn, Maryland, USA
Distance from station: SW 12mi, 19km
Updated: Wed, 22-Oct-2014 8:54pm EDT

 
Temperature: 55°F , 13°C
Dew Point: 45°F , 7°C
Humidity: 67%
Barometer: 29.93 inHg , 1013.5 hPa
2014/10/23 00:54 KDMH 230054Z AUTO 13/07 A2993 RMK AO1 SLP134 T01330067
 
KBWI - Balto/Wash Intl, Maryland, USA
Distance from station: SSW 20mi, 33km
Updated: Wed, 22-Oct-2014 8:54pm EDT
Overcast
Overcast
 Wind from NNW
Wind: NNW 14 mph , 22 km/h, Gust: 21 mph , 33 km/h
Temperature: 54°F , 12°C
Dew Point: 45°F , 7°C
Humidity: 72%
Barometer: 29.93 inHg , 1013.5 hPa
Clouds: Overcast
Visibility: 10 miles , 16 km
Cloud details: Few Clouds 2500 ft
Mostly cloudy 3200 ft
Overcast 6000 ft
2014/10/23 00:54 KBWI 230054Z 33012G18KT 10SM FEW025 BKN032 OVC060 12/07 A2993 RMK AO2 SLP133 T01220072
KDMW - Carroll Cnty, Maryland, USA
Distance from station: WNW 30mi, 48km
Updated: Wed, 22-Oct-2014 9:10pm EDT
Overcast
Overcast
 Wind from NNW
Wind: NNW 10 mph , 17 km/h, Gust: 18 mph , 30 km/h
Temperature: 52°F , 11°C
Dew Point: 46°F , 8°C
Humidity: 82%
Barometer: 29.96 inHg , 1014.6 hPa
Clouds: Overcast
Visibility: 10 miles , 16 km
Cloud details: Overcast 2900 ft
2014/10/23 01:10 KDMW 230110Z AUTO 34009G16KT 10SM OVC029 11/08 A2996 RMK AO2
 
KNAK - Annapolis/Naval, Maryland, USA
Distance from station: S 30mi, 48km
Updated: Wed, 22-Oct-2014 8:54pm EDT
Overcast
Overcast
 Wind from NNW
Wind: NNW 16 mph , 26 km/h
Temperature: 55°F , 13°C
Dew Point: 48°F , 9°C
Humidity: 77%
Barometer: 29.91 inHg , 1012.9 hPa
Clouds: Overcast
Visibility: 10 miles , 16 km
Cloud details: Overcast 3700 ft
2014/10/23 00:54 KNAK 230054Z AUTO 33014KT 10SM OVC037 13/09 A2991 RMK AO2 RAE44 SLP131 P0001 T01330089
KW29 - Stevensville, Maryland, USA
Distance from station: SSE 31mi, 50km
Updated: Wed, 22-Oct-2014 9:12pm EDT
Light Drizzle
Light Drizzle
 Wind from NNW
Wind: NNW 18 mph , 30 km/h, Gust: 26 mph , 43 km/h
Temperature: 54°F , 12°C
Dew Point: 46°F , 8°C
Humidity: 77%
Barometer: 29.90 inHg , 1012.5 hPa
Summary: Light Drizzle
Visibility: 10 miles , 16 km
2014/10/23 01:12 KW29 230112Z AUTO 33016G23KT 10SM -DZ 12/08 A2990 RMK AO1
 
KCGS - College Park, Maryland, USA
Distance from station: SW 38mi, 61km
Updated: Wed, 22-Oct-2014 9:10pm EDT
Overcast
Overcast
 Wind from N
Wind: N 8 mph , 13 km/h, Gust: 22 mph , 35 km/h
Temperature: 55°F , 13°C
Dew Point: 45°F , 7°C
Humidity: 67%
Barometer: 29.95 inHg , 1014.2 hPa
Clouds: Overcast
Visibility: 10 miles , 16 km
Cloud details: Overcast 3600 ft
2014/10/23 01:10 KCGS 230110Z AUTO 35007G19KT 10SM OVC036 13/07 A2995 RMK AO1
KGAI - Gaithersburg, Maryland, USA
Distance from station: WSW 40mi, 65km
Updated: Wed, 22-Oct-2014 9:15pm EDT
Overcast
Overcast
 Wind from NW
Wind: NW 6 mph , 9 km/h
Temperature: 54°F , 12°C
Dew Point: 45°F , 7°C
Humidity: 72%
Barometer: 30.00 inHg , 1015.9 hPa
Clouds: Overcast
Visibility: 10 miles , 16 km
Cloud details: Overcast 3200 ft
2014/10/23 01:15 KGAI 230115Z 32005KT 10SM OVC032 12/07 A3000 RMK AO1
 
KTHV - York, Pennsylvania, USA
Distance from station: NNW 40mi, 65km
Updated: Wed, 22-Oct-2014 8:53pm EDT
Overcast
Overcast
 Wind from NNW
Wind: NNW 12 mph , 19 km/h, Gust: 20 mph , 31 km/h
Temperature: 54°F , 12°C
Dew Point: 43°F , 6°C
Humidity: 67%
Barometer: 29.97 inHg , 1014.9 hPa
Clouds: Overcast
Visibility: 10 miles , 16 km
Cloud details: Partly cloudy 3000 ft
Mostly cloudy 3600 ft
Overcast 6000 ft
2014/10/23 00:53 KTHV 230053Z AUTO 34010G17KT 10SM SCT030 BKN036 OVC060 12/06 A2997 RMK AO2 SLP150 T01170061
KFDK - Frederick, Maryland, USA
Distance from station: W 47mi, 75km
Updated: Wed, 22-Oct-2014 9:10pm EDT
Overcast
Overcast
 Wind from NNW
Wind: NNW 12 mph , 19 km/h
Temperature: 57°F , 14°C
Dew Point: 43°F , 6°C
Humidity: 59%
Barometer: 30.01 inHg , 1016.3 hPa
Clouds: Overcast
Visibility: 10 miles , 16 km
Cloud details: Overcast 3600 ft
2014/10/23 01:10 KFDK 230110Z AUTO 33010KT 10SM OVC036 14/06 A3001 RMK AO2 LTG DSNT E
 
KESN - Easton/Newnam, Maryland, USA
Distance from station: SSE 48mi, 78km
Updated: Wed, 22-Oct-2014 8:50pm EDT

 Wind from N
Wind: N 20 mph , 31 km/h, Gust: 28 mph , 44 km/h
2014/10/23 00:50 KESN 230050Z 35017G24KT 10 SCT028 SCT033 SCT039 13/12 A2991
KDCA - Washington/Natl, Washington D.c., USA
Distance from station: SW 49mi, 79km
Updated: Wed, 22-Oct-2014 8:52pm EDT
Overcast
Overcast
 Wind from NNW
Wind: NNW 15 mph , 24 km/h
Temperature: 57°F , 14°C
Dew Point: 46°F , 8°C
Humidity: 67%
Barometer: 29.95 inHg , 1014.2 hPa
Clouds: Overcast
Visibility: 10 miles , 16 km
Cloud details: Overcast 3600 ft
2014/10/23 00:52 KDCA 230052Z 33013KT 10SM OVC036 14/08 A2995 RMK AO2 SLP142 T01440078
 
KLNS - Lancaster, Pennsylvania, USA
Distance from station: N 49mi, 79km
Updated: Wed, 22-Oct-2014 8:53pm EDT
Overcast
Overcast
 Wind from NNW
Wind: NNW 14 mph , 22 km/h, Gust: 24 mph , 39 km/h
Temperature: 52°F , 11°C
Dew Point: 43°F , 6°C
Humidity: 72%
Barometer: 29.92 inHg , 1013.2 hPa
Clouds: Overcast
Visibility: 10 miles , 16 km
Cloud details: Partly cloudy 3100 ft
Mostly cloudy 4800 ft
Overcast 7500 ft
2014/10/23 00:53 KLNS 230053Z 33012G21KT 10SM SCT031 BKN048 OVC075 11/06 A2992 RMK AO2 SLP133 T01110061
KILG - Wilmington, Delaware, USA
Distance from station: ENE 50mi, 81km
Updated: Wed, 22-Oct-2014 8:51pm EDT
Light rain, Overcast
Light rain, Overcast
 Wind from NNW
Wind: NNW 18 mph , 30 km/h, Gust: 26 mph , 43 km/h
Temperature: 54°F , 12°C
Dew Point: 48°F , 9°C
Humidity: 82%
Barometer: 29.86 inHg , 1011.2 hPa
Summary: Light rain
Clouds: Overcast
Visibility: 10 miles , 16 km
Cloud details: Few Clouds 5500 ft
Mostly cloudy 7500 ft
Overcast 9000 ft
2014/10/23 00:51 KILG 230051Z 33016G23KT 10SM -RA FEW055 BKN075 OVC090 12/09 A2986 RMK AO2 RAE2355B30 SLP110 P0000 T01170094